Mostly Cloudy Current Weather (METAR) For Cancun Airport

All times on the weather descriptions are local

Observed at 13:52 - (15 mins ago)

Mostly Cloudy

32°C

Mostly Cloudy
Clouds: Broken Clouds at 1,800ft, Broken Clouds at 25,000ft
Wind: 090° at 09 knots
Visibility: 7 statute miles
QNH:
Dew Point: 25°C
Runway in Use: Runway 12

Sunrise Today: 06:29
Sunset Today: 19:08

Forecast Weather (TAF) For Cancun Airport

Issued at 19:00 - (2 days 4 hrs ago)


Runway in Use: Unable to determine, wind is clam

Forecast valid until 19:00 on Sunday

METAR/TAF RAW METAR / TAF

MMUN 281852Z 09009KT 7SM BKN018CB BKN250 32/25 A2993 RMK 8/303

Weather Widget

Put weather from any of our airports on your website with our weather widget.

Find Another Search

Airport Search


Please Wait Please Wait - Loading
Close
Close

Login

Username:

Password:

Remember Me:

Remember me on this computer

Forgotten your password? Get a reset password sent to your registered e-mail address

Close

User Private Message

Subject:

Message: